sensor_id;sensor_type;location;lat;lon;timestamp;P1;durP1;ratioP1;P2;durP2;ratioP2
37451;SDS011;23314;51.114;6.900;2022-09-24T00:01:08;12.03;;;7.50;;
37451;SDS011;23314;51.114;6.900;2022-09-24T00:03:48;12.30;;;8.30;;
37451;SDS011;23314;51.114;6.900;2022-09-24T00:06:19;13.77;;;7.70;;
37451;SDS011;23314;51.114;6.900;2022-09-24T00:08:46;11.53;;;7.87;;
37451;SDS011;23314;51.114;6.900;2022-09-24T00:11:13;12.10;;;8.47;;
37451;SDS011;23314;51.114;6.900;2022-09-24T00:13:40;10.97;;;7.60;;
37451;SDS011;23314;51.114;6.900;2022-09-24T00:16:07;10.43;;;7.70;;
37451;SDS011;23314;51.114;6.900;2022-09-24T00:18:37;10.73;;;8.20;;
37451;SDS011;23314;51.114;6.900;2022-09-24T00:21:21;15.77;;;8.10;;
37451;SDS011;23314;51.114;6.900;2022-09-24T00:23:56;11.90;;;8.00;;
37451;SDS011;23314;51.114;6.900;2022-09-24T00:26:23;8.47;;;7.23;;
37451;SDS011;23314;51.114;6.900;2022-09-24T00:29:08;11.23;;;8.40;;
37451;SDS011;23314;51.114;6.900;2022-09-24T00:31:34;11.23;;;7.80;;
37451;SDS011;23314;51.114;6.900;2022-09-24T00:34:00;14.80;;;7.87;;
37451;SDS011;23314;51.114;6.900;2022-09-24T00:36:26;10.03;;;7.87;;
37451;SDS011;23314;51.114;6.900;2022-09-24T00:38:53;11.53;;;8.13;;
37451;SDS011;23314;51.114;6.900;2022-09-24T00:41:20;11.70;;;7.97;;
37451;SDS011;23314;51.114;6.900;2022-09-24T00:43:48;10.93;;;7.43;;
37451;SDS011;23314;51.114;6.900;2022-09-24T00:46:16;10.23;;;7.57;;
37451;SDS011;23314;51.114;6.900;2022-09-24T00:48:47;11.03;;;7.67;;
37451;SDS011;23314;51.114;6.900;2022-09-24T00:51:17;10.07;;;7.20;;
37451;SDS011;23314;51.114;6.900;2022-09-24T00:53:45;14.03;;;7.47;;
37451;SDS011;23314;51.114;6.900;2022-09-24T00:56:13;14.03;;;7.40;;
37451;SDS011;23314;51.114;6.900;2022-09-24T00:58:39;9.23;;;7.07;;
37451;SDS011;23314;51.114;6.900;2022-09-24T01:01:08;10.80;;;7.57;;
37451;SDS011;23314;51.114;6.900;2022-09-24T01:03:35;11.63;;;7.00;;
37451;SDS011;23314;51.114;6.900;2022-09-24T01:06:09;17.37;;;7.83;;
37451;SDS011;23314;51.114;6.900;2022-09-24T01:08:36;10.53;;;8.20;;
37451;SDS011;23314;51.114;6.900;2022-09-24T01:25:40;11.90;;;7.37;;
37451;SDS011;23314;51.114;6.900;2022-09-24T01:30:50;9.47;;;7.30;;
37451;SDS011;23314;51.114;6.900;2022-09-24T01:33:21;9.57;;;7.47;;
37451;SDS011;23314;51.114;6.900;2022-09-24T01:35:50;13.27;;;7.70;;
37451;SDS011;23314;51.114;6.900;2022-09-24T01:38:23;10.07;;;8.23;;
37451;SDS011;23314;51.114;6.900;2022-09-24T01:40:52;9.43;;;7.13;;
37451;SDS011;23314;51.114;6.900;2022-09-24T01:43:21;9.40;;;7.03;;
37451;SDS011;23314;51.114;6.900;2022-09-24T01:45:48;11.20;;;7.83;;
37451;SDS011;23314;51.114;6.900;2022-09-24T01:48:14;12.77;;;7.70;;
37451;SDS011;23314;51.114;6.900;2022-09-24T01:51:05;11.27;;;7.27;;
37451;SDS011;23314;51.114;6.900;2022-09-24T01:53:38;11.57;;;7.77;;
37451;SDS011;23314;51.114;6.900;2022-09-24T01:56:15;8.90;;;7.63;;
37451;SDS011;23314;51.114;6.900;2022-09-24T01:58:47;12.77;;;7.77;;
37451;SDS011;23314;51.114;6.900;2022-09-24T02:01:21;10.57;;;7.53;;
37451;SDS011;23314;51.114;6.900;2022-09-24T02:03:52;9.60;;;7.53;;
37451;SDS011;23314;51.114;6.900;2022-09-24T02:06:32;9.37;;;6.87;;
37451;SDS011;23314;51.114;6.900;2022-09-24T02:09:02;10.17;;;7.83;;
37451;SDS011;23314;51.114;6.900;2022-09-24T02:11:27;10.37;;;7.20;;
37451;SDS011;23314;51.114;6.900;2022-09-24T02:16:28;9.13;;;7.23;;
37451;SDS011;23314;51.114;6.900;2022-09-24T02:19:00;9.33;;;7.83;;
37451;SDS011;23314;51.114;6.900;2022-09-24T02:21:29;7.73;;;6.73;;
37451;SDS011;23314;51.114;6.900;2022-09-24T02:23:58;9.27;;;7.20;;
37451;SDS011;23314;51.114;6.900;2022-09-24T02:26:29;11.83;;;7.13;;
37451;SDS011;23314;51.114;6.900;2022-09-24T02:28:56;8.47;;;7.00;;
37451;SDS011;23314;51.114;6.900;2022-09-24T02:31:30;11.23;;;7.60;;
37451;SDS011;23314;51.114;6.900;2022-09-24T02:33:58;11.07;;;7.33;;
37451;SDS011;23314;51.114;6.900;2022-09-24T02:36:47;10.03;;;6.97;;
37451;SDS011;23314;51.114;6.900;2022-09-24T02:39:17;9.37;;;7.47;;
37451;SDS011;23314;51.114;6.900;2022-09-24T02:41:44;12.20;;;7.40;;
37451;SDS011;23314;51.114;6.900;2022-09-24T02:44:14;8.90;;;7.03;;
37451;SDS011;23314;51.114;6.900;2022-09-24T02:46:41;9.50;;;6.53;;
37451;SDS011;23314;51.114;6.900;2022-09-24T02:49:07;10.43;;;7.80;;
37451;SDS011;23314;51.114;6.900;2022-09-24T02:51:34;8.73;;;7.30;;
37451;SDS011;23314;51.114;6.900;2022-09-24T02:53:59;9.23;;;7.10;;
37451;SDS011;23314;51.114;6.900;2022-09-24T02:56:26;10.23;;;7.17;;
37451;SDS011;23314;51.114;6.900;2022-09-24T02:58:52;9.17;;;7.20;;
37451;SDS011;23314;51.114;6.900;2022-09-24T03:01:18;10.57;;;7.03;;
37451;SDS011;23314;51.114;6.900;2022-09-24T03:03:43;8.43;;;6.93;;
37451;SDS011;23314;51.114;6.900;2022-09-24T03:06:09;10.23;;;7.07;;
37451;SDS011;23314;51.114;6.900;2022-09-24T03:08:36;8.17;;;6.60;;
37451;SDS011;23314;51.114;6.900;2022-09-24T03:11:02;9.03;;;7.30;;
37451;SDS011;23314;51.114;6.900;2022-09-24T03:13:27;9.50;;;6.30;;
37451;SDS011;23314;51.114;6.900;2022-09-24T03:15:52;10.13;;;6.57;;
37451;SDS011;23314;51.114;6.900;2022-09-24T03:18:18;12.03;;;6.70;;
37451;SDS011;23314;51.114;6.900;2022-09-24T03:20:52;7.50;;;6.50;;
37451;SDS011;23314;51.114;6.900;2022-09-24T03:23:19;7.40;;;6.60;;
37451;SDS011;23314;51.114;6.900;2022-09-24T03:25:44;8.90;;;6.87;;
37451;SDS011;23314;51.114;6.900;2022-09-24T03:28:09;8.30;;;6.43;;
37451;SDS011;23314;51.114;6.900;2022-09-24T03:30:35;7.80;;;6.23;;
37451;SDS011;23314;51.114;6.900;2022-09-24T03:33:19;7.53;;;6.30;;
37451;SDS011;23314;51.114;6.900;2022-09-24T03:35:44;8.80;;;6.60;;
37451;SDS011;23314;51.114;6.900;2022-09-24T03:38:09;7.80;;;7.00;;
37451;SDS011;23314;51.114;6.900;2022-09-24T03:40:35;10.73;;;7.50;;
37451;SDS011;23314;51.114;6.900;2022-09-24T03:43:00;8.20;;;7.03;;
37451;SDS011;23314;51.114;6.900;2022-09-24T03:45:25;12.17;;;7.17;;
37451;SDS011;23314;51.114;6.900;2022-09-24T03:47:51;9.50;;;7.10;;
37451;SDS011;23314;51.114;6.900;2022-09-24T03:50:16;7.80;;;7.07;;
37451;SDS011;23314;51.114;6.900;2022-09-24T03:52:41;7.63;;;6.83;;
37451;SDS011;23314;51.114;6.900;2022-09-24T03:55:07;10.40;;;6.93;;
37451;SDS011;23314;51.114;6.900;2022-09-24T03:57:33;9.93;;;6.67;;
37451;SDS011;23314;51.114;6.900;2022-09-24T03:59:58;7.43;;;6.57;;
37451;SDS011;23314;51.114;6.900;2022-09-24T04:02:24;8.40;;;7.33;;
37451;SDS011;23314;51.114;6.900;2022-09-24T04:04:49;11.57;;;7.27;;
37451;SDS011;23314;51.114;6.900;2022-09-24T04:07:16;9.67;;;7.23;;
37451;SDS011;23314;51.114;6.900;2022-09-24T04:09:41;9.00;;;7.10;;
37451;SDS011;23314;51.114;6.900;2022-09-24T04:12:07;8.40;;;6.83;;
37451;SDS011;23314;51.114;6.900;2022-09-24T04:14:32;8.23;;;7.27;;
37451;SDS011;23314;51.114;6.900;2022-09-24T04:16:57;9.33;;;6.73;;
37451;SDS011;23314;51.114;6.900;2022-09-24T04:19:23;9.70;;;6.77;;
37451;SDS011;23314;51.114;6.900;2022-09-24T04:21:49;7.93;;;7.13;;
37451;SDS011;23314;51.114;6.900;2022-09-24T04:24:14;7.63;;;6.90;;
37451;SDS011;23314;51.114;6.900;2022-09-24T04:26:39;12.30;;;7.63;;
37451;SDS011;23314;51.114;6.900;2022-09-24T04:29:05;10.27;;;7.67;;
37451;SDS011;23314;51.114;6.900;2022-09-24T04:31:30;9.10;;;7.00;;
37451;SDS011;23314;51.114;6.900;2022-09-24T04:33:57;9.87;;;6.57;;
37451;SDS011;23314;51.114;6.900;2022-09-24T04:36:23;10.20;;;7.27;;
37451;SDS011;23314;51.114;6.900;2022-09-24T04:38:48;8.30;;;7.17;;
37451;SDS011;23314;51.114;6.900;2022-09-24T04:41:14;9.07;;;6.57;;
37451;SDS011;23314;51.114;6.900;2022-09-24T04:43:42;10.13;;;6.83;;
37451;SDS011;23314;51.114;6.900;2022-09-24T04:46:11;7.27;;;6.50;;
37451;SDS011;23314;51.114;6.900;2022-09-24T04:48:37;10.00;;;6.97;;
37451;SDS011;23314;51.114;6.900;2022-09-24T04:51:07;11.20;;;7.20;;
37451;SDS011;23314;51.114;6.900;2022-09-24T04:53:35;14.37;;;6.90;;
37451;SDS011;23314;51.114;6.900;2022-09-24T04:56:04;12.53;;;7.47;;
37451;SDS011;23314;51.114;6.900;2022-09-24T04:58:30;8.27;;;6.83;;
37451;SDS011;23314;51.114;6.900;2022-09-24T05:00:55;8.83;;;7.13;;
37451;SDS011;23314;51.114;6.900;2022-09-24T05:03:21;9.37;;;7.30;;
37451;SDS011;23314;51.114;6.900;2022-09-24T05:05:46;8.50;;;7.47;;
37451;SDS011;23314;51.114;6.900;2022-09-24T05:08:12;9.83;;;7.27;;
37451;SDS011;23314;51.114;6.900;2022-09-24T05:10:38;10.30;;;7.73;;
37451;SDS011;23314;51.114;6.900;2022-09-24T05:13:03;10.37;;;7.23;;
37451;SDS011;23314;51.114;6.900;2022-09-24T05:15:29;11.20;;;7.60;;
37451;SDS011;23314;51.114;6.900;2022-09-24T05:17:55;11.93;;;7.93;;
37451;SDS011;23314;51.114;6.900;2022-09-24T05:20:21;9.90;;;6.73;;
37451;SDS011;23314;51.114;6.900;2022-09-24T05:22:47;9.23;;;7.70;;
37451;SDS011;23314;51.114;6.900;2022-09-24T05:25:13;9.47;;;7.47;;
37451;SDS011;23314;51.114;6.900;2022-09-24T05:27:44;12.77;;;7.60;;
37451;SDS011;23314;51.114;6.900;2022-09-24T05:30:10;9.43;;;7.37;;
37451;SDS011;23314;51.114;6.900;2022-09-24T05:32:37;12.67;;;7.80;;
37451;SDS011;23314;51.114;6.900;2022-09-24T05:35:03;12.20;;;7.40;;
37451;SDS011;23314;51.114;6.900;2022-09-24T05:37:31;7.70;;;7.00;;
37451;SDS011;23314;51.114;6.900;2022-09-24T05:39:57;9.97;;;7.67;;
37451;SDS011;23314;51.114;6.900;2022-09-24T05:42:42;11.50;;;7.90;;
37451;SDS011;23314;51.114;6.900;2022-09-24T05:45:10;11.80;;;7.87;;
37451;SDS011;23314;51.114;6.900;2022-09-24T05:47:36;11.03;;;7.57;;
37451;SDS011;23314;51.114;6.900;2022-09-24T05:50:02;9.67;;;7.77;;
37451;SDS011;23314;51.114;6.900;2022-09-24T05:52:28;10.20;;;8.20;;
37451;SDS011;23314;51.114;6.900;2022-09-24T05:54:53;9.97;;;7.80;;
37451;SDS011;23314;51.114;6.900;2022-09-24T05:57:18;12.77;;;7.70;;
37451;SDS011;23314;51.114;6.900;2022-09-24T05:59:45;9.57;;;8.57;;
37451;SDS011;23314;51.114;6.900;2022-09-24T06:02:10;9.33;;;8.10;;
37451;SDS011;23314;51.114;6.900;2022-09-24T06:04:38;12.50;;;7.40;;
37451;SDS011;23314;51.114;6.900;2022-09-24T06:07:03;8.87;;;7.57;;
37451;SDS011;23314;51.114;6.900;2022-09-24T06:09:28;10.53;;;7.77;;
37451;SDS011;23314;51.114;6.900;2022-09-24T06:11:54;8.83;;;7.93;;
37451;SDS011;23314;51.114;6.900;2022-09-24T06:14:20;10.67;;;7.67;;
37451;SDS011;23314;51.114;6.900;2022-09-24T06:16:46;8.50;;;7.67;;
37451;SDS011;23314;51.114;6.900;2022-09-24T06:19:11;10.40;;;8.30;;
37451;SDS011;23314;51.114;6.900;2022-09-24T06:21:37;10.43;;;7.60;;
37451;SDS011;23314;51.114;6.900;2022-09-24T06:24:02;11.60;;;8.17;;
37451;SDS011;23314;51.114;6.900;2022-09-24T06:26:28;14.43;;;7.83;;
37451;SDS011;23314;51.114;6.900;2022-09-24T06:28:53;9.77;;;7.47;;
37451;SDS011;23314;51.114;6.900;2022-09-24T06:31:19;10.63;;;7.57;;
37451;SDS011;23314;51.114;6.900;2022-09-24T06:33:44;11.00;;;7.70;;
37451;SDS011;23314;51.114;6.900;2022-09-24T06:36:10;12.57;;;8.37;;
37451;SDS011;23314;51.114;6.900;2022-09-24T06:38:35;11.93;;;8.10;;
37451;SDS011;23314;51.114;6.900;2022-09-24T06:41:04;20.10;;;9.87;;
37451;SDS011;23314;51.114;6.900;2022-09-24T06:43:31;25.80;;;9.53;;
37451;SDS011;23314;51.114;6.900;2022-09-24T06:45:57;16.80;;;9.10;;
37451;SDS011;23314;51.114;6.900;2022-09-24T06:48:23;20.77;;;8.73;;
37451;SDS011;23314;51.114;6.900;2022-09-24T06:50:50;12.10;;;8.30;;
37451;SDS011;23314;51.114;6.900;2022-09-24T06:53:16;11.60;;;7.17;;
37451;SDS011;23314;51.114;6.900;2022-09-24T06:55:42;12.07;;;8.00;;
37451;SDS011;23314;51.114;6.900;2022-09-24T06:58:08;9.60;;;7.77;;
37451;SDS011;23314;51.114;6.900;2022-09-24T07:00:36;11.27;;;8.00;;
37451;SDS011;23314;51.114;6.900;2022-09-24T07:03:03;13.40;;;7.97;;
37451;SDS011;23314;51.114;6.900;2022-09-24T07:05:29;10.73;;;8.20;;
37451;SDS011;23314;51.114;6.900;2022-09-24T07:07:54;10.80;;;8.30;;
37451;SDS011;23314;51.114;6.900;2022-09-24T07:10:19;11.97;;;8.17;;
37451;SDS011;23314;51.114;6.900;2022-09-24T07:12:45;9.97;;;7.63;;
37451;SDS011;23314;51.114;6.900;2022-09-24T07:15:10;9.00;;;8.07;;
37451;SDS011;23314;51.114;6.900;2022-09-24T07:17:36;10.37;;;8.03;;
37451;SDS011;23314;51.114;6.900;2022-09-24T07:20:02;9.27;;;8.00;;
37451;SDS011;23314;51.114;6.900;2022-09-24T07:22:28;11.93;;;8.40;;
37451;SDS011;23314;51.114;6.900;2022-09-24T07:24:53;11.40;;;8.50;;
37451;SDS011;23314;51.114;6.900;2022-09-24T07:27:19;8.13;;;7.33;;
37451;SDS011;23314;51.114;6.900;2022-09-24T07:29:45;10.60;;;8.33;;
37451;SDS011;23314;51.114;6.900;2022-09-24T07:32:11;11.73;;;7.90;;
37451;SDS011;23314;51.114;6.900;2022-09-24T07:34:36;8.97;;;7.97;;
37451;SDS011;23314;51.114;6.900;2022-09-24T07:37:02;15.00;;;8.50;;
37451;SDS011;23314;51.114;6.900;2022-09-24T07:39:28;10.83;;;9.33;;
37451;SDS011;23314;51.114;6.900;2022-09-24T07:41:54;10.27;;;9.27;;
37451;SDS011;23314;51.114;6.900;2022-09-24T07:44:20;13.60;;;8.70;;
37451;SDS011;23314;51.114;6.900;2022-09-24T07:46:49;15.20;;;8.73;;
37451;SDS011;23314;51.114;6.900;2022-09-24T07:49:15;10.20;;;9.20;;
37451;SDS011;23314;51.114;6.900;2022-09-24T07:51:42;12.90;;;8.07;;
37451;SDS011;23314;51.114;6.900;2022-09-24T07:54:08;12.17;;;9.20;;
37451;SDS011;23314;51.114;6.900;2022-09-24T07:56:34;14.40;;;9.73;;
37451;SDS011;23314;51.114;6.900;2022-09-24T07:59:00;11.17;;;9.30;;
37451;SDS011;23314;51.114;6.900;2022-09-24T08:01:25;12.80;;;8.67;;
37451;SDS011;23314;51.114;6.900;2022-09-24T08:03:51;15.33;;;10.43;;
37451;SDS011;23314;51.114;6.900;2022-09-24T08:06:18;11.53;;;9.70;;
37451;SDS011;23314;51.114;6.900;2022-09-24T08:08:44;13.90;;;9.70;;
37451;SDS011;23314;51.114;6.900;2022-09-24T08:11:12;18.93;;;10.70;;
37451;SDS011;23314;51.114;6.900;2022-09-24T08:13:38;14.43;;;9.83;;
37451;SDS011;23314;51.114;6.900;2022-09-24T08:16:03;12.33;;;9.93;;
37451;SDS011;23314;51.114;6.900;2022-09-24T08:18:30;12.33;;;10.37;;
37451;SDS011;23314;51.114;6.900;2022-09-24T08:20:57;12.07;;;10.10;;
37451;SDS011;23314;51.114;6.900;2022-09-24T08:23:24;16.70;;;10.47;;
37451;SDS011;23314;51.114;6.900;2022-09-24T08:25:49;13.63;;;9.73;;
37451;SDS011;23314;51.114;6.900;2022-09-24T08:28:18;11.67;;;10.47;;
37451;SDS011;23314;51.114;6.900;2022-09-24T08:30:43;11.80;;;9.80;;
37451;SDS011;23314;51.114;6.900;2022-09-24T08:33:09;15.30;;;11.33;;
37451;SDS011;23314;51.114;6.900;2022-09-24T08:35:35;14.23;;;10.67;;
37451;SDS011;23314;51.114;6.900;2022-09-24T08:38:03;16.93;;;11.20;;
37451;SDS011;23314;51.114;6.900;2022-09-24T08:40:30;16.63;;;11.23;;
37451;SDS011;23314;51.114;6.900;2022-09-24T08:45:38;14.57;;;10.50;;
37451;SDS011;23314;51.114;6.900;2022-09-24T08:48:40;17.93;;;12.40;;
37451;SDS011;23314;51.114;6.900;2022-09-24T08:51:12;16.27;;;12.23;;
37451;SDS011;23314;51.114;6.900;2022-09-24T08:53:55;16.03;;;13.00;;
37451;SDS011;23314;51.114;6.900;2022-09-24T08:56:29;16.93;;;11.90;;
37451;SDS011;23314;51.114;6.900;2022-09-24T08:59:05;16.57;;;12.67;;
37451;SDS011;23314;51.114;6.900;2022-09-24T09:01:40;16.50;;;12.83;;
37451;SDS011;23314;51.114;6.900;2022-09-24T09:07:07;23.17;;;14.27;;
37451;SDS011;23314;51.114;6.900;2022-09-24T09:12:44;19.13;;;12.70;;
37451;SDS011;23314;51.114;6.900;2022-09-24T09:18:11;19.90;;;12.80;;
37451;SDS011;23314;51.114;6.900;2022-09-24T09:20:45;20.40;;;13.27;;
37451;SDS011;23314;51.114;6.900;2022-09-24T09:23:20;17.52;;;13.32;;
37451;SDS011;23314;51.114;6.900;2022-09-24T09:25:53;15.45;;;13.45;;
37451;SDS011;23314;51.114;6.900;2022-09-24T09:28:20;16.33;;;13.68;;
37451;SDS011;23314;51.114;6.900;2022-09-24T09:33:44;17.63;;;15.55;;
37451;SDS011;23314;51.114;6.900;2022-09-24T09:36:45;18.58;;;15.55;;
37451;SDS011;23314;51.114;6.900;2022-09-24T09:44:46;18.27;;;15.75;;
37451;SDS011;23314;51.114;6.900;2022-09-24T09:47:18;21.15;;;16.48;;
37451;SDS011;23314;51.114;6.900;2022-09-24T09:50:09;20.35;;;16.23;;
37451;SDS011;23314;51.114;6.900;2022-09-24T09:52:42;18.20;;;14.02;;
37451;SDS011;23314;51.114;6.900;2022-09-24T09:55:18;19.17;;;14.98;;
37451;SDS011;23314;51.114;6.900;2022-09-24T09:57:49;18.65;;;14.50;;
37451;SDS011;23314;51.114;6.900;2022-09-24T10:00:22;15.68;;;14.02;;
37451;SDS011;23314;51.114;6.900;2022-09-24T10:02:50;16.40;;;14.43;;
37451;SDS011;23314;51.114;6.900;2022-09-24T10:05:18;20.20;;;14.63;;
37451;SDS011;23314;51.114;6.900;2022-09-24T10:07:46;19.08;;;13.75;;
37451;SDS011;23314;51.114;6.900;2022-09-24T10:12:41;20.60;;;14.10;;
37451;SDS011;23314;51.114;6.900;2022-09-24T10:17:38;14.88;;;13.27;;
37451;SDS011;23314;51.114;6.900;2022-09-24T10:20:09;15.93;;;13.10;;
37451;SDS011;23314;51.114;6.900;2022-09-24T10:22:49;18.75;;;13.75;;
37451;SDS011;23314;51.114;6.900;2022-09-24T10:25:17;18.33;;;14.05;;
37451;SDS011;23314;51.114;6.900;2022-09-24T10:27:48;19.17;;;14.38;;
37451;SDS011;23314;51.114;6.900;2022-09-24T10:30:15;16.38;;;14.55;;
37451;SDS011;23314;51.114;6.900;2022-09-24T10:33:07;19.52;;;14.63;;
37451;SDS011;23314;51.114;6.900;2022-09-24T10:35:34;17.17;;;14.80;;
37451;SDS011;23314;51.114;6.900;2022-09-24T10:38:14;16.25;;;14.27;;
37451;SDS011;23314;51.114;6.900;2022-09-24T10:40:42;19.17;;;14.13;;
37451;SDS011;23314;51.114;6.900;2022-09-24T10:43:13;19.80;;;14.50;;
37451;SDS011;23314;51.114;6.900;2022-09-24T10:45:48;17.50;;;14.80;;
37451;SDS011;23314;51.114;6.900;2022-09-24T10:48:34;18.70;;;14.88;;
37451;SDS011;23314;51.114;6.900;2022-09-24T10:51:02;18.15;;;15.57;;
37451;SDS011;23314;51.114;6.900;2022-09-24T11:04:25;16.40;;;14.27;;
37451;SDS011;23314;51.114;6.900;2022-09-24T11:12:49;17.42;;;13.20;;
37451;SDS011;23314;51.114;6.900;2022-09-24T11:27:26;14.02;;;12.45;;
37451;SDS011;23314;51.114;6.900;2022-09-24T11:30:15;13.45;;;11.88;;
37451;SDS011;23314;51.114;6.900;2022-09-24T11:38:34;16.08;;;12.65;;
37451;SDS011;23314;51.114;6.900;2022-09-24T11:41:30;14.40;;;12.85;;
37451;SDS011;23314;51.114;6.900;2022-09-24T11:44:45;14.35;;;12.55;;
37451;SDS011;23314;51.114;6.900;2022-09-24T11:49:56;16.02;;;14.10;;
37451;SDS011;23314;51.114;6.900;2022-09-24T11:52:40;14.07;;;12.20;;
37451;SDS011;23314;51.114;6.900;2022-09-24T11:55:33;14.52;;;11.60;;
37451;SDS011;23314;51.114;6.900;2022-09-24T11:58:25;12.50;;;10.85;;
37451;SDS011;23314;51.114;6.900;2022-09-24T12:00:59;13.25;;;10.50;;
37451;SDS011;23314;51.114;6.900;2022-09-24T12:03:34;11.63;;;10.43;;
37451;SDS011;23314;51.114;6.900;2022-09-24T12:06:12;13.02;;;11.68;;
37451;SDS011;23314;51.114;6.900;2022-09-24T12:08:54;12.50;;;10.80;;
37451;SDS011;23314;51.114;6.900;2022-09-24T12:14:20;14.00;;;12.55;;
37451;SDS011;23314;51.114;6.900;2022-09-24T12:16:52;15.63;;;12.52;;
37451;SDS011;23314;51.114;6.900;2022-09-24T12:19:26;14.82;;;12.98;;
37451;SDS011;23314;51.114;6.900;2022-09-24T12:21:56;14.13;;;12.65;;
37451;SDS011;23314;51.114;6.900;2022-09-24T12:24:30;14.70;;;13.10;;
37451;SDS011;23314;51.114;6.900;2022-09-24T12:27:00;14.77;;;13.25;;
37451;SDS011;23314;51.114;6.900;2022-09-24T12:32:19;16.63;;;14.18;;
37451;SDS011;23314;51.114;6.900;2022-09-24T12:35:36;15.65;;;13.98;;
37451;SDS011;23314;51.114;6.900;2022-09-24T12:40:51;16.23;;;14.18;;
37451;SDS011;23314;51.114;6.900;2022-09-24T12:43:20;13.55;;;12.23;;
37451;SDS011;23314;51.114;6.900;2022-09-24T12:45:59;12.35;;;11.15;;
37451;SDS011;23314;51.114;6.900;2022-09-24T12:48:27;14.43;;;11.65;;
37451;SDS011;23314;51.114;6.900;2022-09-24T12:50:56;13.43;;;12.05;;
37451;SDS011;23314;51.114;6.900;2022-09-24T12:53:32;13.75;;;11.10;;
37451;SDS011;23314;51.114;6.900;2022-09-24T12:55:59;14.48;;;11.38;;
37451;SDS011;23314;51.114;6.900;2022-09-24T12:58:27;13.07;;;10.73;;
37451;SDS011;23314;51.114;6.900;2022-09-24T13:01:04;13.75;;;10.43;;
37451;SDS011;23314;51.114;6.900;2022-09-24T13:03:34;11.65;;;10.45;;
37451;SDS011;23314;51.114;6.900;2022-09-24T13:06:01;11.25;;;10.10;;
37451;SDS011;23314;51.114;6.900;2022-09-24T13:08:35;12.32;;;9.75;;
37451;SDS011;23314;51.114;6.900;2022-09-24T13:11:21;12.45;;;9.40;;
37451;SDS011;23314;51.114;6.900;2022-09-24T13:14:03;10.80;;;9.55;;
37451;SDS011;23314;51.114;6.900;2022-09-24T13:16:40;11.20;;;9.55;;
37451;SDS011;23314;51.114;6.900;2022-09-24T13:21:57;11.80;;;9.70;;
37451;SDS011;23314;51.114;6.900;2022-09-24T13:24:25;10.63;;;9.52;;
37451;SDS011;23314;51.114;6.900;2022-09-24T13:26:52;11.05;;;9.95;;
37451;SDS011;23314;51.114;6.900;2022-09-24T13:29:22;11.35;;;10.10;;
37451;SDS011;23314;51.114;6.900;2022-09-24T13:31:51;11.23;;;10.15;;
37451;SDS011;23314;51.114;6.900;2022-09-24T13:34:27;13.00;;;9.75;;
37451;SDS011;23314;51.114;6.900;2022-09-24T13:36:57;11.10;;;9.98;;
37451;SDS011;23314;51.114;6.900;2022-09-24T13:39:32;14.82;;;10.95;;
37451;SDS011;23314;51.114;6.900;2022-09-24T13:44:47;13.80;;;11.18;;
37451;SDS011;23314;51.114;6.900;2022-09-24T13:52:41;13.70;;;11.40;;
37451;SDS011;23314;51.114;6.900;2022-09-24T13:55:16;12.43;;;10.68;;
37451;SDS011;23314;51.114;6.900;2022-09-24T13:57:46;14.60;;;11.07;;
37451;SDS011;23314;51.114;6.900;2022-09-24T14:02:51;13.95;;;11.43;;
37451;SDS011;23314;51.114;6.900;2022-09-24T14:05:20;13.70;;;12.35;;
37451;SDS011;23314;51.114;6.900;2022-09-24T14:10:26;14.10;;;12.70;;
37451;SDS011;23314;51.114;6.900;2022-09-24T14:19:03;17.65;;;12.40;;
37451;SDS011;23314;51.114;6.900;2022-09-24T14:24:30;13.40;;;12.00;;
37451;SDS011;23314;51.114;6.900;2022-09-24T14:27:00;13.73;;;11.68;;
37451;SDS011;23314;51.114;6.900;2022-09-24T14:32:23;12.20;;;10.87;;
37451;SDS011;23314;51.114;6.900;2022-09-24T14:34:51;12.40;;;10.97;;
37451;SDS011;23314;51.114;6.900;2022-09-24T14:37:23;12.03;;;10.83;;
37451;SDS011;23314;51.114;6.900;2022-09-24T14:40:00;13.70;;;11.20;;
37451;SDS011;23314;51.114;6.900;2022-09-24T14:42:36;11.97;;;10.77;;
37451;SDS011;23314;51.114;6.900;2022-09-24T14:45:05;13.27;;;10.83;;
37451;SDS011;23314;51.114;6.900;2022-09-24T14:47:34;12.30;;;10.03;;
37451;SDS011;23314;51.114;6.900;2022-09-24T14:50:00;13.00;;;9.83;;
37451;SDS011;23314;51.114;6.900;2022-09-24T14:52:35;17.63;;;10.00;;
37451;SDS011;23314;51.114;6.900;2022-09-24T14:57:41;11.70;;;9.73;;
37451;SDS011;23314;51.114;6.900;2022-09-24T15:02:55;11.40;;;10.20;;
37451;SDS011;23314;51.114;6.900;2022-09-24T15:05:24;11.93;;;10.70;;
37451;SDS011;23314;51.114;6.900;2022-09-24T15:08:08;12.73;;;9.83;;
37451;SDS011;23314;51.114;6.900;2022-09-24T15:11:36;11.77;;;10.57;;
37451;SDS011;23314;51.114;6.900;2022-09-24T15:13:42;11.63;;;10.53;;
37451;SDS011;23314;51.114;6.900;2022-09-24T15:16:18;12.20;;;10.90;;
37451;SDS011;23314;51.114;6.900;2022-09-24T15:18:54;12.73;;;11.07;;
37451;SDS011;23314;51.114;6.900;2022-09-24T15:21:23;12.40;;;10.63;;
37451;SDS011;23314;51.114;6.900;2022-09-24T15:23:48;12.10;;;10.73;;
37451;SDS011;23314;51.114;6.900;2022-09-24T15:26:14;12.00;;;10.00;;
37451;SDS011;23314;51.114;6.900;2022-09-24T15:28:39;13.13;;;10.73;;
37451;SDS011;23314;51.114;6.900;2022-09-24T15:31:05;12.60;;;10.60;;
37451;SDS011;23314;51.114;6.900;2022-09-24T15:33:30;14.30;;;10.57;;
37451;SDS011;23314;51.114;6.900;2022-09-24T15:35:55;14.73;;;10.53;;
37451;SDS011;23314;51.114;6.900;2022-09-24T15:38:21;13.03;;;10.93;;
37451;SDS011;23314;51.114;6.900;2022-09-24T15:40:46;13.30;;;11.50;;
37451;SDS011;23314;51.114;6.900;2022-09-24T15:43:19;13.70;;;11.63;;
37451;SDS011;23314;51.114;6.900;2022-09-24T15:45:46;13.27;;;11.87;;
37451;SDS011;23314;51.114;6.900;2022-09-24T15:48:11;13.63;;;12.23;;
37451;SDS011;23314;51.114;6.900;2022-09-24T15:50:37;14.33;;;11.53;;
37451;SDS011;23314;51.114;6.900;2022-09-24T15:53:04;12.93;;;11.63;;
37451;SDS011;23314;51.114;6.900;2022-09-24T15:55:30;13.60;;;11.80;;
37451;SDS011;23314;51.114;6.900;2022-09-24T15:58:00;12.73;;;11.43;;
37451;SDS011;23314;51.114;6.900;2022-09-24T16:00:26;13.10;;;11.70;;
37451;SDS011;23314;51.114;6.900;2022-09-24T16:02:52;14.33;;;12.27;;
37451;SDS011;23314;51.114;6.900;2022-09-24T16:05:20;14.30;;;12.80;;
37451;SDS011;23314;51.114;6.900;2022-09-24T16:07:47;12.67;;;11.47;;
37451;SDS011;23314;51.114;6.900;2022-09-24T16:10:13;16.47;;;12.03;;
37451;SDS011;23314;51.114;6.900;2022-09-24T16:12:39;12.97;;;11.67;;
37451;SDS011;23314;51.114;6.900;2022-09-24T16:15:05;15.00;;;13.37;;
37451;SDS011;23314;51.114;6.900;2022-09-24T16:17:31;13.00;;;11.70;;
37451;SDS011;23314;51.114;6.900;2022-09-24T16:19:56;12.87;;;11.60;;
37451;SDS011;23314;51.114;6.900;2022-09-24T16:22:22;13.63;;;12.33;;
37451;SDS011;23314;51.114;6.900;2022-09-24T16:24:48;13.93;;;12.53;;
37451;SDS011;23314;51.114;6.900;2022-09-24T16:27:13;14.57;;;12.43;;
37451;SDS011;23314;51.114;6.900;2022-09-24T16:29:38;14.57;;;12.40;;
37451;SDS011;23314;51.114;6.900;2022-09-24T16:32:03;15.00;;;13.47;;
37451;SDS011;23314;51.114;6.900;2022-09-24T16:34:29;15.27;;;13.53;;
37451;SDS011;23314;51.114;6.900;2022-09-24T16:36:54;14.80;;;13.27;;
37451;SDS011;23314;51.114;6.900;2022-09-24T16:39:20;15.97;;;13.93;;
37451;SDS011;23314;51.114;6.900;2022-09-24T16:41:49;16.27;;;13.20;;
37451;SDS011;23314;51.114;6.900;2022-09-24T16:44:15;14.23;;;12.80;;
37451;SDS011;23314;51.114;6.900;2022-09-24T16:46:41;13.87;;;12.20;;
37451;SDS011;23314;51.114;6.900;2022-09-24T16:49:07;14.07;;;12.67;;